< Typhoon 202106 2021 Season Typhoon 202108 >
Typhoon 202107 (CEMPAKA)
General InformationTrack Information on Google MapsDetailed Wind InformationForecast History on Google MapsAccess Analytics MapList of All Images || NewsDisaster Info.WeblogTrackbackTyphoon FrontTwiphoonTyphoon Now!Typhoon ImaginationJMA Disaster Info. XMLResourceGoogle EarthGE AnimationAtom FeedGeoJSON
Detalied Best Track (Time Zone = UTC)
Year Month Day Hour Lat. Long. Pressure (hPa) Wind (kt) Class Image Chart
2021 7 18 18 21.0 113.7 998 30 2 Image Chart
2021 7 18 21 21.0 113.5 998 30 2 Image Chart
2021 7 19 00 21.0 113.1 996 35 3 Image Chart
2021 7 19 03 21.0 112.8 996 35 3 Image Chart
2021 7 19 06 21.0 112.6 996 40 3 Image Chart
2021 7 19 09 21.2 112.6 996 40 3 Image Chart
2021 7 19 12 21.2 112.6 996 40 3 Image Chart
2021 7 19 15 21.2 112.5 996 40 3 Image Chart
2021 7 19 18 21.2 112.4 994 45 3 Image Chart
2021 7 19 21 21.2 112.4 994 45 3 Image Chart
2021 7 20 00 21.3 112.3 992 50 4 Image Chart
2021 7 20 03 21.4 112.4 992 50 4 Image Chart
2021 7 20 06 21.5 112.3 990 55 4 Image Chart
2021 7 20 09 21.6 112.3 990 55 4 Image Chart
2021 7 20 12 21.8 112.1 990 55 4 Image Chart
2021 7 20 15 21.8 111.6 990 55 4 Image Chart
2021 7 20 18 21.8 111.2 992 50 4 Image Chart
2021 7 20 21 21.8 111.1 992 50 4 Image Chart
2021 7 21 00 21.9 110.8 996 40 3 Image Chart
2021 7 21 03 22.0 110.7 998 35 3 Image Chart
2021 7 21 06 22.1 110.4 998 35 3 Image Chart
2021 7 21 09 22.5 110.4 998 35 3 Image Chart
2021 7 21 12 22.5 109.5 998 35 3 Image Chart
2021 7 21 15 22.5 109.5 998 35 3 Image Chart
2021 7 21 18 22.5 109.4 998 35 3 Image Chart
2021 7 21 21 22.3 109.3 998 35 3 Image Chart
2021 7 22 00 22.0 109.0 1000 0 2 Image Chart
Japan Meteorological Agency Best Track Data | Correction Date : 2021-07-22
< Typhoon 202106 2021 Season Typhoon 202108 >

Help